Yanji, China
Current Conditions -  °F | °C
As of 6:00 PM on Friday 21 Nov 2014 (Local Time) from UHWW Reporting Station
Haze Haze  
Wind Chill: 36°   Ceiling: 20000
Heat Index: 36°   Visibility: 2.4mi
Dew Point: 32°   Wind: 0mph
Humidity: 87%   Direction: NA
Pressure: 30.06"   Gusts: NA
Location:  42.88°N, 129.52°E
Report Text: UHWW 211000Z 00000MPS 3900 BR BKN200 02/00 Q1018 BECMG 1000 BRRMK QFE762/1016 25CLRD70
Loading
Personal Weather Stations






























Interactive Weather Map New forecast layout! Learn more

10-Day Weather Forecast

Advertisements
Track Severe Weather on mobile